sensor_id;sensor_type;location;lat;lon;timestamp;P1;durP1;ratioP1;P2;durP2;ratioP2
78057;SDS011;67265;52.514;13.292;2024-03-08T00:01:21;21.92;;;8.80;;
78057;SDS011;67265;52.514;13.292;2024-03-08T00:03:49;19.08;;;8.30;;
78057;SDS011;67265;52.514;13.292;2024-03-08T00:06:16;20.25;;;9.75;;
78057;SDS011;67265;52.514;13.292;2024-03-08T00:08:42;20.73;;;9.07;;
78057;SDS011;67265;52.514;13.292;2024-03-08T00:11:09;20.77;;;8.23;;
78057;SDS011;67265;52.514;13.292;2024-03-08T00:13:35;19.65;;;8.75;;
78057;SDS011;67265;52.514;13.292;2024-03-08T00:16:03;24.55;;;9.55;;
78057;SDS011;67265;52.514;13.292;2024-03-08T00:18:32;22.45;;;9.75;;
78057;SDS011;67265;52.514;13.292;2024-03-08T00:20:59;23.88;;;10.38;;
78057;SDS011;67265;52.514;13.292;2024-03-08T00:23:26;24.05;;;10.25;;
78057;SDS011;67265;52.514;13.292;2024-03-08T00:25:54;24.35;;;8.93;;
78057;SDS011;67265;52.514;13.292;2024-03-08T00:28:23;20.10;;;8.82;;
78057;SDS011;67265;52.514;13.292;2024-03-08T00:30:51;19.83;;;8.13;;
78057;SDS011;67265;52.514;13.292;2024-03-08T00:33:18;21.75;;;8.45;;
78057;SDS011;67265;52.514;13.292;2024-03-08T00:35:44;20.25;;;9.75;;
78057;SDS011;67265;52.514;13.292;2024-03-08T00:38:11;20.15;;;8.18;;
78057;SDS011;67265;52.514;13.292;2024-03-08T00:40:38;18.15;;;7.97;;
78057;SDS011;67265;52.514;13.292;2024-03-08T00:43:07;21.85;;;8.45;;
78057;SDS011;67265;52.514;13.292;2024-03-08T00:45:34;20.98;;;8.70;;
78057;SDS011;67265;52.514;13.292;2024-03-08T00:48:01;22.98;;;9.15;;
78057;SDS011;67265;52.514;13.292;2024-03-08T00:50:27;19.50;;;8.98;;
78057;SDS011;67265;52.514;13.292;2024-03-08T00:52:54;22.60;;;8.65;;
78057;SDS011;67265;52.514;13.292;2024-03-08T00:55:20;22.77;;;9.45;;
78057;SDS011;67265;52.514;13.292;2024-03-08T00:57:47;23.38;;;9.43;;
78057;SDS011;67265;52.514;13.292;2024-03-08T01:00:13;22.00;;;9.48;;
78057;SDS011;67265;52.514;13.292;2024-03-08T01:02:41;23.67;;;9.38;;
78057;SDS011;67265;52.514;13.292;2024-03-08T01:05:08;22.98;;;9.00;;
78057;SDS011;67265;52.514;13.292;2024-03-08T01:07:35;21.27;;;8.48;;
78057;SDS011;67265;52.514;13.292;2024-03-08T01:10:02;21.95;;;9.57;;
78057;SDS011;67265;52.514;13.292;2024-03-08T01:12:29;21.98;;;8.43;;
78057;SDS011;67265;52.514;13.292;2024-03-08T01:14:56;19.40;;;6.97;;
78057;SDS011;67265;52.514;13.292;2024-03-08T01:17:24;20.50;;;8.55;;
78057;SDS011;67265;52.514;13.292;2024-03-08T01:19:51;19.40;;;9.35;;
78057;SDS011;67265;52.514;13.292;2024-03-08T01:22:21;25.80;;;9.63;;
78057;SDS011;67265;52.514;13.292;2024-03-08T01:24:48;23.23;;;9.93;;
78057;SDS011;67265;52.514;13.292;2024-03-08T01:27:15;21.60;;;10.18;;
78057;SDS011;67265;52.514;13.292;2024-03-08T01:29:41;18.05;;;6.93;;
78057;SDS011;67265;52.514;13.292;2024-03-08T01:32:08;19.67;;;10.07;;
78057;SDS011;67265;52.514;13.292;2024-03-08T01:34:35;17.85;;;7.65;;
78057;SDS011;67265;52.514;13.292;2024-03-08T01:37:01;19.33;;;8.75;;
78057;SDS011;67265;52.514;13.292;2024-03-08T01:39:28;22.65;;;9.85;;
78057;SDS011;67265;52.514;13.292;2024-03-08T01:41:55;19.98;;;8.57;;
78057;SDS011;67265;52.514;13.292;2024-03-08T01:44:21;26.20;;;10.45;;
78057;SDS011;67265;52.514;13.292;2024-03-08T01:46:48;18.58;;;8.18;;
78057;SDS011;67265;52.514;13.292;2024-03-08T01:49:15;18.98;;;8.38;;
78057;SDS011;67265;52.514;13.292;2024-03-08T01:51:44;19.65;;;7.95;;
78057;SDS011;67265;52.514;13.292;2024-03-08T01:54:11;24.35;;;8.38;;
78057;SDS011;67265;52.514;13.292;2024-03-08T01:56:40;19.70;;;9.27;;
78057;SDS011;67265;52.514;13.292;2024-03-08T01:59:07;21.60;;;8.52;;
78057;SDS011;67265;52.514;13.292;2024-03-08T02:01:34;21.95;;;8.63;;
78057;SDS011;67265;52.514;13.292;2024-03-08T02:04:00;22.67;;;8.95;;
78057;SDS011;67265;52.514;13.292;2024-03-08T02:06:29;20.27;;;8.80;;
78057;SDS011;67265;52.514;13.292;2024-03-08T02:08:56;23.27;;;9.07;;
78057;SDS011;67265;52.514;13.292;2024-03-08T02:11:23;24.50;;;8.45;;
78057;SDS011;67265;52.514;13.292;2024-03-08T02:13:49;24.90;;;9.07;;
78057;SDS011;67265;52.514;13.292;2024-03-08T02:16:20;23.05;;;9.93;;
78057;SDS011;67265;52.514;13.292;2024-03-08T02:18:49;25.10;;;10.07;;
78057;SDS011;67265;52.514;13.292;2024-03-08T02:21:16;24.92;;;9.35;;
78057;SDS011;67265;52.514;13.292;2024-03-08T02:23:48;19.60;;;8.65;;
78057;SDS011;67265;52.514;13.292;2024-03-08T02:26:18;23.88;;;11.32;;
78057;SDS011;67265;52.514;13.292;2024-03-08T02:28:47;22.42;;;9.63;;
78057;SDS011;67265;52.514;13.292;2024-03-08T02:31:13;23.92;;;10.82;;
78057;SDS011;67265;52.514;13.292;2024-03-08T02:33:40;28.30;;;10.32;;
78057;SDS011;67265;52.514;13.292;2024-03-08T02:36:07;21.27;;;8.48;;
78057;SDS011;67265;52.514;13.292;2024-03-08T02:38:34;21.02;;;8.45;;
78057;SDS011;67265;52.514;13.292;2024-03-08T02:41:01;25.38;;;9.30;;
78057;SDS011;67265;52.514;13.292;2024-03-08T02:43:30;20.70;;;9.20;;
78057;SDS011;67265;52.514;13.292;2024-03-08T02:45:56;23.88;;;9.93;;
78057;SDS011;67265;52.514;13.292;2024-03-08T02:48:23;21.80;;;9.15;;
78057;SDS011;67265;52.514;13.292;2024-03-08T02:50:52;18.95;;;8.60;;
78057;SDS011;67265;52.514;13.292;2024-03-08T02:53:20;21.73;;;8.43;;
78057;SDS011;67265;52.514;13.292;2024-03-08T02:55:46;19.73;;;8.23;;
78057;SDS011;67265;52.514;13.292;2024-03-08T02:58:13;26.83;;;8.65;;
78057;SDS011;67265;52.514;13.292;2024-03-08T03:00:41;26.27;;;9.85;;
78057;SDS011;67265;52.514;13.292;2024-03-08T03:03:11;24.60;;;10.48;;
78057;SDS011;67265;52.514;13.292;2024-03-08T03:05:38;23.90;;;8.52;;
78057;SDS011;67265;52.514;13.292;2024-03-08T03:08:11;24.33;;;10.75;;
78057;SDS011;67265;52.514;13.292;2024-03-08T03:10:39;25.38;;;9.65;;
78057;SDS011;67265;52.514;13.292;2024-03-08T03:13:05;23.52;;;8.18;;
78057;SDS011;67265;52.514;13.292;2024-03-08T03:15:35;22.50;;;9.38;;
78057;SDS011;67265;52.514;13.292;2024-03-08T03:18:03;26.02;;;8.93;;
78057;SDS011;67265;52.514;13.292;2024-03-08T03:20:30;27.17;;;9.52;;
78057;SDS011;67265;52.514;13.292;2024-03-08T03:23:03;17.67;;;7.07;;
78057;SDS011;67265;52.514;13.292;2024-03-08T03:25:30;23.52;;;9.40;;
78057;SDS011;67265;52.514;13.292;2024-03-08T03:28:01;20.85;;;8.93;;
78057;SDS011;67265;52.514;13.292;2024-03-08T03:30:29;21.75;;;9.10;;
78057;SDS011;67265;52.514;13.292;2024-03-08T03:33:02;21.45;;;8.45;;
78057;SDS011;67265;52.514;13.292;2024-03-08T03:35:33;22.13;;;8.77;;
78057;SDS011;67265;52.514;13.292;2024-03-08T03:38:00;22.95;;;7.80;;
78057;SDS011;67265;52.514;13.292;2024-03-08T03:40:28;20.98;;;7.07;;
78057;SDS011;67265;52.514;13.292;2024-03-08T03:42:55;23.73;;;9.13;;
78057;SDS011;67265;52.514;13.292;2024-03-08T03:45:24;21.02;;;7.88;;
78057;SDS011;67265;52.514;13.292;2024-03-08T03:47:52;23.65;;;8.70;;
78057;SDS011;67265;52.514;13.292;2024-03-08T03:50:19;23.15;;;9.07;;
78057;SDS011;67265;52.514;13.292;2024-03-08T03:52:47;21.05;;;9.27;;
78057;SDS011;67265;52.514;13.292;2024-03-08T03:55:14;24.88;;;9.93;;
78057;SDS011;67265;52.514;13.292;2024-03-08T03:57:41;25.90;;;10.05;;
78057;SDS011;67265;52.514;13.292;2024-03-08T04:00:08;21.42;;;8.63;;
78057;SDS011;67265;52.514;13.292;2024-03-08T04:02:40;26.40;;;9.90;;
78057;SDS011;67265;52.514;13.292;2024-03-08T04:05:10;18.80;;;9.05;;
78057;SDS011;67265;52.514;13.292;2024-03-08T04:07:37;24.00;;;8.93;;
78057;SDS011;67265;52.514;13.292;2024-03-08T04:10:05;24.13;;;8.57;;
78057;SDS011;67265;52.514;13.292;2024-03-08T04:12:33;21.67;;;9.20;;
78057;SDS011;67265;52.514;13.292;2024-03-08T04:15:00;25.73;;;9.25;;
78057;SDS011;67265;52.514;13.292;2024-03-08T04:17:27;24.33;;;10.45;;
78057;SDS011;67265;52.514;13.292;2024-03-08T04:19:54;21.50;;;10.07;;
78057;SDS011;67265;52.514;13.292;2024-03-08T04:22:20;25.88;;;10.52;;
78057;SDS011;67265;52.514;13.292;2024-03-08T04:24:51;25.60;;;10.02;;
78057;SDS011;67265;52.514;13.292;2024-03-08T04:27:17;28.20;;;10.50;;
78057;SDS011;67265;52.514;13.292;2024-03-08T04:29:45;19.70;;;8.57;;
78057;SDS011;67265;52.514;13.292;2024-03-08T04:32:11;25.00;;;9.77;;
78057;SDS011;67265;52.514;13.292;2024-03-08T04:34:39;19.77;;;8.98;;
78057;SDS011;67265;52.514;13.292;2024-03-08T04:37:11;26.38;;;8.90;;
78057;SDS011;67265;52.514;13.292;2024-03-08T04:39:40;25.10;;;9.80;;
78057;SDS011;67265;52.514;13.292;2024-03-08T04:42:06;22.70;;;10.15;;
78057;SDS011;67265;52.514;13.292;2024-03-08T04:44:36;24.42;;;9.40;;
78057;SDS011;67265;52.514;13.292;2024-03-08T04:47:04;32.75;;;10.95;;
78057;SDS011;67265;52.514;13.292;2024-03-08T04:49:32;24.67;;;9.15;;
78057;SDS011;67265;52.514;13.292;2024-03-08T04:52:02;32.05;;;9.85;;
78057;SDS011;67265;52.514;13.292;2024-03-08T04:54:30;25.38;;;11.68;;
78057;SDS011;67265;52.514;13.292;2024-03-08T04:56:57;23.83;;;9.15;;
78057;SDS011;67265;52.514;13.292;2024-03-08T04:59:28;25.95;;;9.10;;
78057;SDS011;67265;52.514;13.292;2024-03-08T05:01:57;27.15;;;9.82;;
78057;SDS011;67265;52.514;13.292;2024-03-08T05:04:23;25.45;;;10.93;;
78057;SDS011;67265;52.514;13.292;2024-03-08T05:06:50;30.20;;;11.00;;
78057;SDS011;67265;52.514;13.292;2024-03-08T05:09:17;27.77;;;10.50;;
78057;SDS011;67265;52.514;13.292;2024-03-08T05:11:45;28.90;;;10.88;;
78057;SDS011;67265;52.514;13.292;2024-03-08T05:14:13;25.70;;;9.63;;
78057;SDS011;67265;52.514;13.292;2024-03-08T05:16:43;30.67;;;11.00;;
78057;SDS011;67265;52.514;13.292;2024-03-08T05:19:15;21.67;;;9.32;;
78057;SDS011;67265;52.514;13.292;2024-03-08T05:21:46;24.65;;;9.25;;
78057;SDS011;67265;52.514;13.292;2024-03-08T05:24:16;24.52;;;9.40;;
78057;SDS011;67265;52.514;13.292;2024-03-08T05:26:45;22.35;;;9.90;;
78057;SDS011;67265;52.514;13.292;2024-03-08T05:29:12;25.77;;;11.10;;
78057;SDS011;67265;52.514;13.292;2024-03-08T05:31:47;26.98;;;11.40;;
78057;SDS011;67265;52.514;13.292;2024-03-08T05:34:15;24.90;;;9.43;;
78057;SDS011;67265;52.514;13.292;2024-03-08T05:36:43;27.73;;;10.48;;
78057;SDS011;67265;52.514;13.292;2024-03-08T05:39:13;25.80;;;10.88;;
78057;SDS011;67265;52.514;13.292;2024-03-08T05:41:40;25.10;;;9.50;;
78057;SDS011;67265;52.514;13.292;2024-03-08T05:44:07;24.13;;;11.00;;
78057;SDS011;67265;52.514;13.292;2024-03-08T05:46:35;22.02;;;9.25;;
78057;SDS011;67265;52.514;13.292;2024-03-08T05:49:06;26.02;;;9.43;;
78057;SDS011;67265;52.514;13.292;2024-03-08T05:51:37;24.58;;;10.27;;
78057;SDS011;67265;52.514;13.292;2024-03-08T05:54:09;25.17;;;9.80;;
78057;SDS011;67265;52.514;13.292;2024-03-08T05:56:38;25.23;;;10.85;;
78057;SDS011;67265;52.514;13.292;2024-03-08T05:59:09;32.67;;;11.23;;
78057;SDS011;67265;52.514;13.292;2024-03-08T06:01:36;28.80;;;10.20;;
78057;SDS011;67265;52.514;13.292;2024-03-08T06:04:03;25.20;;;10.20;;
78057;SDS011;67265;52.514;13.292;2024-03-08T06:06:30;30.63;;;10.52;;
78057;SDS011;67265;52.514;13.292;2024-03-08T06:08:56;28.77;;;10.10;;
78057;SDS011;67265;52.514;13.292;2024-03-08T06:11:23;27.80;;;11.13;;
78057;SDS011;67265;52.514;13.292;2024-03-08T06:13:49;29.40;;;11.95;;
78057;SDS011;67265;52.514;13.292;2024-03-08T06:16:16;25.42;;;11.07;;
78057;SDS011;67265;52.514;13.292;2024-03-08T06:18:42;28.20;;;10.50;;
78057;SDS011;67265;52.514;13.292;2024-03-08T06:21:09;31.17;;;11.60;;
78057;SDS011;67265;52.514;13.292;2024-03-08T06:23:38;24.33;;;10.25;;
78057;SDS011;67265;52.514;13.292;2024-03-08T06:26:04;25.00;;;10.82;;
78057;SDS011;67265;52.514;13.292;2024-03-08T06:28:31;26.92;;;11.40;;
78057;SDS011;67265;52.514;13.292;2024-03-08T06:31:01;31.58;;;11.30;;
78057;SDS011;67265;52.514;13.292;2024-03-08T06:33:28;27.27;;;10.35;;
78057;SDS011;67265;52.514;13.292;2024-03-08T06:35:58;27.67;;;10.73;;
78057;SDS011;67265;52.514;13.292;2024-03-08T06:38:24;27.05;;;11.15;;
78057;SDS011;67265;52.514;13.292;2024-03-08T06:40:53;29.05;;;11.45;;
78057;SDS011;67265;52.514;13.292;2024-03-08T06:43:21;26.17;;;12.32;;
78057;SDS011;67265;52.514;13.292;2024-03-08T06:45:47;27.48;;;10.65;;
78057;SDS011;67265;52.514;13.292;2024-03-08T06:48:18;27.02;;;10.52;;
78057;SDS011;67265;52.514;13.292;2024-03-08T06:50:46;21.88;;;10.05;;
78057;SDS011;67265;52.514;13.292;2024-03-08T06:53:14;26.17;;;10.93;;
78057;SDS011;67265;52.514;13.292;2024-03-08T06:55:47;25.70;;;10.07;;
78057;SDS011;67265;52.514;13.292;2024-03-08T06:58:15;19.67;;;9.48;;
78057;SDS011;67265;52.514;13.292;2024-03-08T07:00:43;29.85;;;11.48;;
78057;SDS011;67265;52.514;13.292;2024-03-08T07:03:10;24.58;;;11.88;;
78057;SDS011;67265;52.514;13.292;2024-03-08T07:05:40;23.75;;;10.93;;
78057;SDS011;67265;52.514;13.292;2024-03-08T07:08:06;27.10;;;12.43;;
78057;SDS011;67265;52.514;13.292;2024-03-08T07:10:33;23.63;;;11.18;;
78057;SDS011;67265;52.514;13.292;2024-03-08T07:13:03;22.70;;;10.95;;
78057;SDS011;67265;52.514;13.292;2024-03-08T07:15:30;23.92;;;10.73;;
78057;SDS011;67265;52.514;13.292;2024-03-08T07:17:56;21.58;;;10.05;;
78057;SDS011;67265;52.514;13.292;2024-03-08T07:20:23;25.45;;;11.60;;
78057;SDS011;67265;52.514;13.292;2024-03-08T07:22:49;24.35;;;11.93;;
78057;SDS011;67265;52.514;13.292;2024-03-08T07:25:17;21.95;;;11.77;;
78057;SDS011;67265;52.514;13.292;2024-03-08T07:27:55;21.50;;;9.77;;
78057;SDS011;67265;52.514;13.292;2024-03-08T07:30:24;22.23;;;11.02;;
78057;SDS011;67265;52.514;13.292;2024-03-08T07:33:10;22.85;;;10.50;;
78057;SDS011;67265;52.514;13.292;2024-03-08T07:35:41;20.25;;;9.65;;
78057;SDS011;67265;52.514;13.292;2024-03-08T07:38:08;21.30;;;11.23;;
78057;SDS011;67265;52.514;13.292;2024-03-08T07:40:36;21.23;;;10.82;;
78057;SDS011;67265;52.514;13.292;2024-03-08T07:43:10;20.90;;;10.15;;
78057;SDS011;67265;52.514;13.292;2024-03-08T07:45:37;24.90;;;10.23;;
78057;SDS011;67265;52.514;13.292;2024-03-08T07:48:04;21.73;;;10.93;;
78057;SDS011;67265;52.514;13.292;2024-03-08T07:50:39;24.27;;;11.05;;
78057;SDS011;67265;52.514;13.292;2024-03-08T07:53:07;25.50;;;12.02;;
78057;SDS011;67265;52.514;13.292;2024-03-08T07:55:34;21.60;;;10.60;;
78057;SDS011;67265;52.514;13.292;2024-03-08T07:58:01;22.23;;;10.98;;
78057;SDS011;67265;52.514;13.292;2024-03-08T08:00:29;23.02;;;10.82;;
78057;SDS011;67265;52.514;13.292;2024-03-08T08:02:57;24.30;;;11.30;;
78057;SDS011;67265;52.514;13.292;2024-03-08T08:05:25;26.67;;;12.60;;
78057;SDS011;67265;52.514;13.292;2024-03-08T08:07:52;25.13;;;11.52;;
78057;SDS011;67265;52.514;13.292;2024-03-08T08:10:20;21.23;;;11.02;;
78057;SDS011;67265;52.514;13.292;2024-03-08T08:12:52;22.45;;;10.93;;
78057;SDS011;67265;52.514;13.292;2024-03-08T08:15:19;24.33;;;10.60;;
78057;SDS011;67265;52.514;13.292;2024-03-08T08:17:45;25.52;;;11.98;;
78057;SDS011;67265;52.514;13.292;2024-03-08T08:20:12;23.67;;;10.75;;
78057;SDS011;67265;52.514;13.292;2024-03-08T08:22:39;24.60;;;11.80;;
78057;SDS011;67265;52.514;13.292;2024-03-08T08:25:07;23.23;;;11.02;;
78057;SDS011;67265;52.514;13.292;2024-03-08T08:27:34;22.85;;;10.43;;
78057;SDS011;67265;52.514;13.292;2024-03-08T08:30:04;22.23;;;10.52;;
78057;SDS011;67265;52.514;13.292;2024-03-08T08:37:44;23.65;;;11.00;;
78057;SDS011;67265;52.514;13.292;2024-03-08T08:40:13;21.77;;;11.40;;
78057;SDS011;67265;52.514;13.292;2024-03-08T08:42:44;19.83;;;9.93;;
78057;SDS011;67265;52.514;13.292;2024-03-08T08:47:45;20.73;;;10.27;;
78057;SDS011;67265;52.514;13.292;2024-03-08T08:50:15;17.63;;;9.80;;
78057;SDS011;67265;52.514;13.292;2024-03-08T08:52:42;20.48;;;10.45;;
78057;SDS011;67265;52.514;13.292;2024-03-08T08:55:11;18.33;;;10.35;;
78057;SDS011;67265;52.514;13.292;2024-03-08T08:57:41;19.98;;;10.13;;
78057;SDS011;67265;52.514;13.292;2024-03-08T09:00:08;23.05;;;11.00;;
78057;SDS011;67265;52.514;13.292;2024-03-08T09:05:00;18.73;;;9.93;;
78057;SDS011;67265;52.514;13.292;2024-03-08T09:07:28;20.67;;;10.52;;
78057;SDS011;67265;52.514;13.292;2024-03-08T09:09:54;20.27;;;11.18;;
78057;SDS011;67265;52.514;13.292;2024-03-08T09:12:24;19.35;;;11.02;;
78057;SDS011;67265;52.514;13.292;2024-03-08T09:14:51;21.55;;;10.55;;
78057;SDS011;67265;52.514;13.292;2024-03-08T09:17:17;24.20;;;11.45;;
78057;SDS011;67265;52.514;13.292;2024-03-08T09:19:46;23.08;;;11.77;;
78057;SDS011;67265;52.514;13.292;2024-03-08T09:22:15;25.00;;;11.93;;
78057;SDS011;67265;52.514;13.292;2024-03-08T09:24:42;21.90;;;11.45;;
78057;SDS011;67265;52.514;13.292;2024-03-08T09:27:09;20.38;;;10.98;;
78057;SDS011;67265;52.514;13.292;2024-03-08T09:29:36;21.35;;;11.20;;
78057;SDS011;67265;52.514;13.292;2024-03-08T09:32:02;20.00;;;10.45;;
78057;SDS011;67265;52.514;13.292;2024-03-08T09:34:29;20.38;;;11.18;;
78057;SDS011;67265;52.514;13.292;2024-03-08T09:37:03;20.85;;;10.98;;
78057;SDS011;67265;52.514;13.292;2024-03-08T09:39:30;21.17;;;11.00;;
78057;SDS011;67265;52.514;13.292;2024-03-08T09:41:59;24.75;;;12.25;;
78057;SDS011;67265;52.514;13.292;2024-03-08T09:44:26;20.30;;;11.57;;
78057;SDS011;67265;52.514;13.292;2024-03-08T09:46:56;25.15;;;11.90;;
78057;SDS011;67265;52.514;13.292;2024-03-08T09:49:25;20.27;;;10.57;;
78057;SDS011;67265;52.514;13.292;2024-03-08T09:51:51;21.75;;;10.93;;
78057;SDS011;67265;52.514;13.292;2024-03-08T09:54:19;23.33;;;11.27;;
78057;SDS011;67265;52.514;13.292;2024-03-08T09:56:51;20.70;;;11.18;;
78057;SDS011;67265;52.514;13.292;2024-03-08T09:59:19;17.90;;;10.52;;
78057;SDS011;67265;52.514;13.292;2024-03-08T10:02:12;22.90;;;12.50;;
78057;SDS011;67265;52.514;13.292;2024-03-08T10:04:42;20.10;;;10.95;;
78057;SDS011;67265;52.514;13.292;2024-03-08T10:07:12;19.48;;;10.35;;
78057;SDS011;67265;52.514;13.292;2024-03-08T10:09:38;19.35;;;10.65;;
78057;SDS011;67265;52.514;13.292;2024-03-08T10:12:05;21.73;;;11.18;;
78057;SDS011;67265;52.514;13.292;2024-03-08T10:14:34;22.67;;;11.20;;
78057;SDS011;67265;52.514;13.292;2024-03-08T10:17:03;21.88;;;10.65;;
78057;SDS011;67265;52.514;13.292;2024-03-08T10:19:29;21.70;;;10.88;;
78057;SDS011;67265;52.514;13.292;2024-03-08T10:21:56;18.30;;;9.38;;
78057;SDS011;67265;52.514;13.292;2024-03-08T10:24:25;20.40;;;10.15;;
78057;SDS011;67265;52.514;13.292;2024-03-08T10:26:53;19.30;;;9.98;;
78057;SDS011;67265;52.514;13.292;2024-03-08T10:29:20;18.98;;;10.20;;
78057;SDS011;67265;52.514;13.292;2024-03-08T10:31:49;19.30;;;10.20;;
78057;SDS011;67265;52.514;13.292;2024-03-08T10:34:19;19.30;;;9.65;;
78057;SDS011;67265;52.514;13.292;2024-03-08T10:36:46;17.83;;;9.20;;
78057;SDS011;67265;52.514;13.292;2024-03-08T10:39:23;19.80;;;9.82;;
78057;SDS011;67265;52.514;13.292;2024-03-08T10:41:56;19.27;;;10.13;;
78057;SDS011;67265;52.514;13.292;2024-03-08T10:49:50;20.33;;;10.27;;
78057;SDS011;67265;52.514;13.292;2024-03-08T10:52:52;18.98;;;10.18;;
78057;SDS011;67265;52.514;13.292;2024-03-08T10:55:21;19.45;;;9.38;;
78057;SDS011;67265;52.514;13.292;2024-03-08T10:57:51;19.25;;;9.82;;
78057;SDS011;67265;52.514;13.292;2024-03-08T11:00:18;18.13;;;8.80;;
78057;SDS011;67265;52.514;13.292;2024-03-08T11:02:56;19.17;;;9.88;;
78057;SDS011;67265;52.514;13.292;2024-03-08T11:05:38;16.45;;;8.93;;
78057;SDS011;67265;52.514;13.292;2024-03-08T11:08:17;18.42;;;9.18;;
78057;SDS011;67265;52.514;13.292;2024-03-08T11:10:49;16.90;;;9.52;;
78057;SDS011;67265;52.514;13.292;2024-03-08T11:13:34;15.93;;;8.80;;
78057;SDS011;67265;52.514;13.292;2024-03-08T11:16:02;21.38;;;9.85;;
78057;SDS011;67265;52.514;13.292;2024-03-08T11:18:33;16.23;;;8.20;;
78057;SDS011;67265;52.514;13.292;2024-03-08T11:21:10;17.27;;;8.48;;
78057;SDS011;67265;52.514;13.292;2024-03-08T11:23:39;18.60;;;9.38;;
78057;SDS011;67265;52.514;13.292;2024-03-08T11:26:20;15.38;;;8.45;;
78057;SDS011;67265;52.514;13.292;2024-03-08T11:28:47;16.05;;;8.68;;
78057;SDS011;67265;52.514;13.292;2024-03-08T11:33:47;17.27;;;8.18;;
78057;SDS011;67265;52.514;13.292;2024-03-08T11:36:22;17.60;;;9.60;;
78057;SDS011;67265;52.514;13.292;2024-03-08T11:38:52;15.05;;;8.13;;
78057;SDS011;67265;52.514;13.292;2024-03-08T11:41:21;16.30;;;8.32;;
78057;SDS011;67265;52.514;13.292;2024-03-08T11:43:49;21.23;;;9.80;;
78057;SDS011;67265;52.514;13.292;2024-03-08T11:46:17;14.82;;;9.38;;
78057;SDS011;67265;52.514;13.292;2024-03-08T11:48:46;17.70;;;9.10;;
78057;SDS011;67265;52.514;13.292;2024-03-08T11:51:15;18.40;;;8.80;;
78057;SDS011;67265;52.514;13.292;2024-03-08T11:53:46;17.42;;;8.52;;
78057;SDS011;67265;52.514;13.292;2024-03-08T11:56:14;15.90;;;8.65;;
78057;SDS011;67265;52.514;13.292;2024-03-08T11:58:42;17.67;;;8.38;;
78057;SDS011;67265;52.514;13.292;2024-03-08T12:01:19;17.30;;;8.55;;
78057;SDS011;67265;52.514;13.292;2024-03-08T12:03:48;18.35;;;8.50;;
78057;SDS011;67265;52.514;13.292;2024-03-08T12:06:21;17.45;;;8.57;;
78057;SDS011;67265;52.514;13.292;2024-03-08T12:08:48;18.83;;;8.25;;
78057;SDS011;67265;52.514;13.292;2024-03-08T12:11:17;17.45;;;8.75;;
78057;SDS011;67265;52.514;13.292;2024-03-08T12:13:55;16.60;;;8.10;;
78057;SDS011;67265;52.514;13.292;2024-03-08T12:16:23;17.30;;;8.85;;
78057;SDS011;67265;52.514;13.292;2024-03-08T12:18:51;17.70;;;8.30;;
78057;SDS011;67265;52.514;13.292;2024-03-08T12:21:18;18.88;;;8.85;;
78057;SDS011;67265;52.514;13.292;2024-03-08T12:24:08;18.00;;;8.20;;
78057;SDS011;67265;52.514;13.292;2024-03-08T12:26:36;14.98;;;7.72;;
78057;SDS011;67265;52.514;13.292;2024-03-08T12:31:56;15.63;;;8.40;;
78057;SDS011;67265;52.514;13.292;2024-03-08T12:34:25;16.02;;;8.07;;
78057;SDS011;67265;52.514;13.292;2024-03-08T12:36:53;17.50;;;9.95;;
78057;SDS011;67265;52.514;13.292;2024-03-08T12:39:22;18.15;;;9.07;;
78057;SDS011;67265;52.514;13.292;2024-03-08T12:41:49;18.45;;;9.02;;
78057;SDS011;67265;52.514;13.292;2024-03-08T12:44:19;17.92;;;9.73;;
78057;SDS011;67265;52.514;13.292;2024-03-08T12:46:48;15.60;;;8.88;;
78057;SDS011;67265;52.514;13.292;2024-03-08T12:49:18;19.00;;;8.73;;
78057;SDS011;67265;52.514;13.292;2024-03-08T12:51:44;17.95;;;9.45;;
78057;SDS011;67265;52.514;13.292;2024-03-08T12:54:11;14.43;;;8.38;;
78057;SDS011;67265;52.514;13.292;2024-03-08T12:56:38;19.05;;;8.77;;
78057;SDS011;67265;52.514;13.292;2024-03-08T12:59:07;14.10;;;7.95;;
78057;SDS011;67265;52.514;13.292;2024-03-08T13:01:36;20.80;;;9.52;;
78057;SDS011;67265;52.514;13.292;2024-03-08T13:04:04;17.95;;;9.25;;
78057;SDS011;67265;52.514;13.292;2024-03-08T13:06:32;15.10;;;8.43;;
78057;SDS011;67265;52.514;13.292;2024-03-08T13:09:00;19.33;;;9.50;;
78057;SDS011;67265;52.514;13.292;2024-03-08T13:11:31;17.73;;;9.65;;
78057;SDS011;67265;52.514;13.292;2024-03-08T13:14:04;16.83;;;9.23;;
78057;SDS011;67265;52.514;13.292;2024-03-08T13:16:33;17.90;;;9.43;;
78057;SDS011;67265;52.514;13.292;2024-03-08T13:19:01;19.02;;;9.77;;
78057;SDS011;67265;52.514;13.292;2024-03-08T13:24:04;19.65;;;9.27;;
78057;SDS011;67265;52.514;13.292;2024-03-08T13:26:31;16.42;;;9.05;;
78057;SDS011;67265;52.514;13.292;2024-03-08T13:29:01;17.10;;;9.80;;
78057;SDS011;67265;52.514;13.292;2024-03-08T13:31:27;16.83;;;8.55;;
78057;SDS011;67265;52.514;13.292;2024-03-08T13:33:54;16.33;;;8.65;;
78057;SDS011;67265;52.514;13.292;2024-03-08T13:36:25;16.60;;;8.90;;
78057;SDS011;67265;52.514;13.292;2024-03-08T13:38:55;16.73;;;8.50;;
78057;SDS011;67265;52.514;13.292;2024-03-08T13:41:25;15.52;;;8.43;;
78057;SDS011;67265;52.514;13.292;2024-03-08T13:43:52;17.00;;;8.88;;
78057;SDS011;67265;52.514;13.292;2024-03-08T13:46:19;16.75;;;8.65;;
78057;SDS011;67265;52.514;13.292;2024-03-08T13:48:46;19.55;;;9.57;;
78057;SDS011;67265;52.514;13.292;2024-03-08T13:51:12;13.80;;;7.30;;
78057;SDS011;67265;52.514;13.292;2024-03-08T13:53:41;18.08;;;9.10;;
78057;SDS011;67265;52.514;13.292;2024-03-08T13:56:08;15.63;;;8.68;;
78057;SDS011;67265;52.514;13.292;2024-03-08T13:58:37;14.68;;;8.02;;
78057;SDS011;67265;52.514;13.292;2024-03-08T14:01:06;16.98;;;8.43;;
78057;SDS011;67265;52.514;13.292;2024-03-08T14:03:38;15.35;;;8.52;;
78057;SDS011;67265;52.514;13.292;2024-03-08T14:06:08;14.75;;;7.88;;
78057;SDS011;67265;52.514;13.292;2024-03-08T14:08:49;16.30;;;8.52;;
78057;SDS011;67265;52.514;13.292;2024-03-08T14:11:18;13.68;;;7.85;;
78057;SDS011;67265;52.514;13.292;2024-03-08T14:13:45;15.18;;;7.45;;
78057;SDS011;67265;52.514;13.292;2024-03-08T14:16:13;15.32;;;8.75;;
78057;SDS011;67265;52.514;13.292;2024-03-08T14:18:43;13.40;;;8.20;;
78057;SDS011;67265;52.514;13.292;2024-03-08T14:21:09;15.88;;;7.70;;
78057;SDS011;67265;52.514;13.292;2024-03-08T14:23:36;15.02;;;7.47;;
78057;SDS011;67265;52.514;13.292;2024-03-08T14:26:03;13.93;;;7.78;;
78057;SDS011;67265;52.514;13.292;2024-03-08T14:28:31;14.32;;;7.15;;
78057;SDS011;67265;52.514;13.292;2024-03-08T14:30:58;15.77;;;7.43;;
78057;SDS011;67265;52.514;13.292;2024-03-08T14:33:32;15.68;;;7.63;;
78057;SDS011;67265;52.514;13.292;2024-03-08T14:35:59;14.70;;;7.38;;
78057;SDS011;67265;52.514;13.292;2024-03-08T14:38:27;15.70;;;7.32;;
78057;SDS011;67265;52.514;13.292;2024-03-08T14:40:53;17.27;;;8.48;;
78057;SDS011;67265;52.514;13.292;2024-03-08T14:43:20;13.63;;;8.23;;
78057;SDS011;67265;52.514;13.292;2024-03-08T14:45:47;16.77;;;8.32;;
78057;SDS011;67265;52.514;13.292;2024-03-08T14:48:17;15.93;;;8.48;;